sensor_id;sensor_type;location;lat;lon;timestamp;P1;durP1;ratioP1;P2;durP2;ratioP2
12369;SDS011;6249;52.128;9.986;2023-03-01T00:03:11;13.13;;;6.23;;
12369;SDS011;6249;52.128;9.986;2023-03-01T00:06:34;11.80;;;6.50;;
12369;SDS011;6249;52.128;9.986;2023-03-01T00:09:55;12.20;;;5.63;;
12369;SDS011;6249;52.128;9.986;2023-03-01T00:13:20;15.97;;;6.93;;
12369;SDS011;6249;52.128;9.986;2023-03-01T00:16:42;14.20;;;6.60;;
12369;SDS011;6249;52.128;9.986;2023-03-01T00:20:05;14.17;;;6.10;;
12369;SDS011;6249;52.128;9.986;2023-03-01T00:23:30;13.40;;;6.93;;
12369;SDS011;6249;52.128;9.986;2023-03-01T00:26:52;11.83;;;6.13;;
12369;SDS011;6249;52.128;9.986;2023-03-01T00:30:15;12.90;;;6.40;;
12369;SDS011;6249;52.128;9.986;2023-03-01T00:33:38;14.00;;;7.00;;
12369;SDS011;6249;52.128;9.986;2023-03-01T00:36:59;12.10;;;6.20;;
12369;SDS011;6249;52.128;9.986;2023-03-01T00:40:25;16.40;;;7.13;;
12369;SDS011;6249;52.128;9.986;2023-03-01T00:43:47;14.43;;;6.90;;
12369;SDS011;6249;52.128;9.986;2023-03-01T00:47:08;17.87;;;7.03;;
12369;SDS011;6249;52.128;9.986;2023-03-01T00:50:28;11.03;;;5.80;;
12369;SDS011;6249;52.128;9.986;2023-03-01T00:53:55;12.73;;;6.20;;
12369;SDS011;6249;52.128;9.986;2023-03-01T00:57:17;15.57;;;6.73;;
12369;SDS011;6249;52.128;9.986;2023-03-01T01:00:38;12.80;;;6.50;;
12369;SDS011;6249;52.128;9.986;2023-03-01T01:04:00;10.67;;;6.00;;
12369;SDS011;6249;52.128;9.986;2023-03-01T01:07:22;17.33;;;6.80;;
12369;SDS011;6249;52.128;9.986;2023-03-01T01:10:45;16.50;;;6.60;;
12369;SDS011;6249;52.128;9.986;2023-03-01T01:14:06;16.20;;;6.70;;
12369;SDS011;6249;52.128;9.986;2023-03-01T01:17:27;12.50;;;6.70;;
12369;SDS011;6249;52.128;9.986;2023-03-01T01:20:47;14.57;;;7.00;;
12369;SDS011;6249;52.128;9.986;2023-03-01T01:24:08;13.77;;;6.40;;
12369;SDS011;6249;52.128;9.986;2023-03-01T01:27:29;14.50;;;6.80;;
12369;SDS011;6249;52.128;9.986;2023-03-01T01:30:50;16.43;;;6.93;;
12369;SDS011;6249;52.128;9.986;2023-03-01T01:34:14;17.37;;;7.67;;
12369;SDS011;6249;52.128;9.986;2023-03-01T01:37:39;13.40;;;6.60;;
12369;SDS011;6249;52.128;9.986;2023-03-01T01:40:59;13.60;;;6.30;;
12369;SDS011;6249;52.128;9.986;2023-03-01T01:44:24;14.03;;;6.40;;
12369;SDS011;6249;52.128;9.986;2023-03-01T01:47:47;14.90;;;6.30;;
12369;SDS011;6249;52.128;9.986;2023-03-01T01:51:13;17.07;;;7.30;;
12369;SDS011;6249;52.128;9.986;2023-03-01T01:58:05;12.67;;;6.00;;
12369;SDS011;6249;52.128;9.986;2023-03-01T02:01:28;18.17;;;6.53;;
12369;SDS011;6249;52.128;9.986;2023-03-01T02:04:49;17.03;;;6.73;;
12369;SDS011;6249;52.128;9.986;2023-03-01T02:08:19;11.37;;;5.50;;
12369;SDS011;6249;52.128;9.986;2023-03-01T02:11:45;13.70;;;5.83;;
12369;SDS011;6249;52.128;9.986;2023-03-01T02:15:10;12.50;;;6.10;;
12369;SDS011;6249;52.128;9.986;2023-03-01T02:18:31;17.13;;;6.67;;
12369;SDS011;6249;52.128;9.986;2023-03-01T02:21:57;14.27;;;6.43;;
12369;SDS011;6249;52.128;9.986;2023-03-01T02:25:51;14.03;;;6.53;;
12369;SDS011;6249;52.128;9.986;2023-03-01T02:29:12;12.93;;;6.83;;
12369;SDS011;6249;52.128;9.986;2023-03-01T02:32:35;17.97;;;7.10;;
12369;SDS011;6249;52.128;9.986;2023-03-01T02:36:12;14.67;;;6.70;;
12369;SDS011;6249;52.128;9.986;2023-03-01T02:39:40;16.77;;;6.77;;
12369;SDS011;6249;52.128;9.986;2023-03-01T02:43:08;14.90;;;5.73;;
12369;SDS011;6249;52.128;9.986;2023-03-01T02:46:31;11.43;;;6.77;;
12369;SDS011;6249;52.128;9.986;2023-03-01T02:49:52;17.80;;;7.57;;
12369;SDS011;6249;52.128;9.986;2023-03-01T02:53:28;15.67;;;7.30;;
12369;SDS011;6249;52.128;9.986;2023-03-01T02:57:10;19.03;;;7.03;;
12369;SDS011;6249;52.128;9.986;2023-03-01T03:00:35;15.30;;;6.43;;
12369;SDS011;6249;52.128;9.986;2023-03-01T03:04:00;15.20;;;5.80;;
12369;SDS011;6249;52.128;9.986;2023-03-01T03:07:23;16.87;;;6.73;;
12369;SDS011;6249;52.128;9.986;2023-03-01T03:10:43;16.57;;;6.90;;
12369;SDS011;6249;52.128;9.986;2023-03-01T03:14:07;14.47;;;6.60;;
12369;SDS011;6249;52.128;9.986;2023-03-01T03:17:32;12.60;;;6.20;;
12369;SDS011;6249;52.128;9.986;2023-03-01T03:20:53;15.30;;;6.47;;
12369;SDS011;6249;52.128;9.986;2023-03-01T03:24:16;13.97;;;6.30;;
12369;SDS011;6249;52.128;9.986;2023-03-01T03:27:39;15.77;;;6.80;;
12369;SDS011;6249;52.128;9.986;2023-03-01T03:31:00;12.83;;;6.17;;
12369;SDS011;6249;52.128;9.986;2023-03-01T03:34:24;14.80;;;8.33;;
12369;SDS011;6249;52.128;9.986;2023-03-01T03:37:47;17.63;;;7.90;;
12369;SDS011;6249;52.128;9.986;2023-03-01T03:41:34;13.10;;;6.70;;
12369;SDS011;6249;52.128;9.986;2023-03-01T03:44:57;16.80;;;7.53;;
12369;SDS011;6249;52.128;9.986;2023-03-01T03:48:18;24.07;;;7.53;;
12369;SDS011;6249;52.128;9.986;2023-03-01T03:51:39;14.30;;;7.43;;
12369;SDS011;6249;52.128;9.986;2023-03-01T03:55:00;19.00;;;8.80;;
12369;SDS011;6249;52.128;9.986;2023-03-01T03:58:21;27.47;;;7.80;;
12369;SDS011;6249;52.128;9.986;2023-03-01T04:01:46;16.83;;;7.97;;
12369;SDS011;6249;52.128;9.986;2023-03-01T04:05:07;17.47;;;8.60;;
12369;SDS011;6249;52.128;9.986;2023-03-01T04:08:30;14.20;;;7.60;;
12369;SDS011;6249;52.128;9.986;2023-03-01T04:11:53;15.77;;;8.90;;
12369;SDS011;6249;52.128;9.986;2023-03-01T04:15:16;19.33;;;7.33;;
12369;SDS011;6249;52.128;9.986;2023-03-01T04:18:37;17.43;;;9.00;;
12369;SDS011;6249;52.128;9.986;2023-03-01T04:21:59;17.20;;;8.33;;
12369;SDS011;6249;52.128;9.986;2023-03-01T04:25:20;17.53;;;7.97;;
12369;SDS011;6249;52.128;9.986;2023-03-01T04:28:43;27.70;;;9.30;;
12369;SDS011;6249;52.128;9.986;2023-03-01T04:32:05;21.30;;;8.80;;
12369;SDS011;6249;52.128;9.986;2023-03-01T04:35:26;20.50;;;7.33;;
12369;SDS011;6249;52.128;9.986;2023-03-01T04:38:47;19.97;;;8.83;;
12369;SDS011;6249;52.128;9.986;2023-03-01T04:42:11;16.97;;;8.63;;
12369;SDS011;6249;52.128;9.986;2023-03-01T04:45:32;21.00;;;9.50;;
12369;SDS011;6249;52.128;9.986;2023-03-01T04:48:55;14.60;;;8.43;;
12369;SDS011;6249;52.128;9.986;2023-03-01T04:52:18;18.10;;;9.03;;
12369;SDS011;6249;52.128;9.986;2023-03-01T04:55:39;14.27;;;7.97;;
12369;SDS011;6249;52.128;9.986;2023-03-01T04:58:59;22.90;;;9.13;;
12369;SDS011;6249;52.128;9.986;2023-03-01T05:02:23;17.97;;;8.63;;
12369;SDS011;6249;52.128;9.986;2023-03-01T05:05:46;18.10;;;8.10;;
12369;SDS011;6249;52.128;9.986;2023-03-01T05:09:09;18.83;;;8.77;;
12369;SDS011;6249;52.128;9.986;2023-03-01T05:12:31;21.50;;;9.07;;
12369;SDS011;6249;52.128;9.986;2023-03-01T05:15:55;18.90;;;8.40;;
12369;SDS011;6249;52.128;9.986;2023-03-01T05:19:17;20.90;;;9.10;;
12369;SDS011;6249;52.128;9.986;2023-03-01T05:22:42;18.50;;;8.90;;
12369;SDS011;6249;52.128;9.986;2023-03-01T05:26:03;20.30;;;10.93;;
12369;SDS011;6249;52.128;9.986;2023-03-01T05:29:26;19.40;;;8.77;;
12369;SDS011;6249;52.128;9.986;2023-03-01T05:32:49;19.13;;;9.27;;
12369;SDS011;6249;52.128;9.986;2023-03-01T05:36:15;19.00;;;8.23;;
12369;SDS011;6249;52.128;9.986;2023-03-01T05:39:36;17.10;;;8.77;;
12369;SDS011;6249;52.128;9.986;2023-03-01T05:42:56;22.10;;;9.70;;
12369;SDS011;6249;52.128;9.986;2023-03-01T05:46:17;19.50;;;9.80;;
12369;SDS011;6249;52.128;9.986;2023-03-01T05:49:37;21.47;;;10.27;;
12369;SDS011;6249;52.128;9.986;2023-03-01T05:52:59;16.63;;;8.93;;
12369;SDS011;6249;52.128;9.986;2023-03-01T05:56:27;21.17;;;8.67;;
12369;SDS011;6249;52.128;9.986;2023-03-01T05:59:49;19.40;;;8.70;;
12369;SDS011;6249;52.128;9.986;2023-03-01T06:03:10;24.13;;;9.60;;
12369;SDS011;6249;52.128;9.986;2023-03-01T06:06:36;20.07;;;10.13;;
12369;SDS011;6249;52.128;9.986;2023-03-01T06:09:59;18.00;;;9.30;;
12369;SDS011;6249;52.128;9.986;2023-03-01T06:13:21;19.27;;;9.13;;
12369;SDS011;6249;52.128;9.986;2023-03-01T06:16:43;25.63;;;10.63;;
12369;SDS011;6249;52.128;9.986;2023-03-01T06:20:04;23.23;;;10.70;;
12369;SDS011;6249;52.128;9.986;2023-03-01T06:23:26;23.07;;;10.53;;
12369;SDS011;6249;52.128;9.986;2023-03-01T06:26:47;19.73;;;10.67;;
12369;SDS011;6249;52.128;9.986;2023-03-01T06:30:08;25.83;;;11.87;;
12369;SDS011;6249;52.128;9.986;2023-03-01T06:33:33;23.37;;;10.10;;
12369;SDS011;6249;52.128;9.986;2023-03-01T06:36:53;20.27;;;9.73;;
12369;SDS011;6249;52.128;9.986;2023-03-01T06:40:16;21.53;;;10.17;;
12369;SDS011;6249;52.128;9.986;2023-03-01T06:43:37;30.77;;;13.30;;
12369;SDS011;6249;52.128;9.986;2023-03-01T06:46:57;22.17;;;11.27;;
12369;SDS011;6249;52.128;9.986;2023-03-01T06:50:18;24.63;;;11.20;;
12369;SDS011;6249;52.128;9.986;2023-03-01T06:53:39;25.90;;;10.20;;
12369;SDS011;6249;52.128;9.986;2023-03-01T06:57:02;23.23;;;10.90;;
12369;SDS011;6249;52.128;9.986;2023-03-01T07:00:23;27.60;;;10.83;;
12369;SDS011;6249;52.128;9.986;2023-03-01T07:03:44;22.53;;;10.43;;
12369;SDS011;6249;52.128;9.986;2023-03-01T07:07:05;22.10;;;10.70;;
12369;SDS011;6249;52.128;9.986;2023-03-01T07:10:25;18.13;;;9.47;;
12369;SDS011;6249;52.128;9.986;2023-03-01T07:13:48;18.30;;;10.87;;
12369;SDS011;6249;52.128;9.986;2023-03-01T07:17:15;21.80;;;10.83;;
12369;SDS011;6249;52.128;9.986;2023-03-01T07:20:35;22.60;;;11.53;;
12369;SDS011;6249;52.128;9.986;2023-03-01T07:23:56;23.53;;;10.70;;
12369;SDS011;6249;52.128;9.986;2023-03-01T07:27:16;21.57;;;10.60;;
12369;SDS011;6249;52.128;9.986;2023-03-01T07:30:37;23.13;;;12.10;;
12369;SDS011;6249;52.128;9.986;2023-03-01T07:33:58;25.17;;;12.43;;
12369;SDS011;6249;52.128;9.986;2023-03-01T07:37:18;24.20;;;11.07;;
12369;SDS011;6249;52.128;9.986;2023-03-01T07:40:39;19.23;;;11.07;;
12369;SDS011;6249;52.128;9.986;2023-03-01T07:44:02;33.73;;;12.10;;
12369;SDS011;6249;52.128;9.986;2023-03-01T07:47:22;21.30;;;10.97;;
12369;SDS011;6249;52.128;9.986;2023-03-01T07:50:47;24.43;;;11.77;;
12369;SDS011;6249;52.128;9.986;2023-03-01T07:54:08;22.37;;;11.80;;
12369;SDS011;6249;52.128;9.986;2023-03-01T07:57:29;20.27;;;11.50;;
12369;SDS011;6249;52.128;9.986;2023-03-01T08:00:49;20.87;;;10.83;;
12369;SDS011;6249;52.128;9.986;2023-03-01T08:04:12;26.60;;;11.47;;
12369;SDS011;6249;52.128;9.986;2023-03-01T08:07:32;19.40;;;10.10;;
12369;SDS011;6249;52.128;9.986;2023-03-01T08:10:56;21.37;;;10.70;;
12369;SDS011;6249;52.128;9.986;2023-03-01T08:14:20;22.90;;;11.57;;
12369;SDS011;6249;52.128;9.986;2023-03-01T08:17:41;15.17;;;10.00;;
12369;SDS011;6249;52.128;9.986;2023-03-01T08:21:02;18.20;;;10.03;;
12369;SDS011;6249;52.128;9.986;2023-03-01T08:24:24;28.13;;;11.17;;
12369;SDS011;6249;52.128;9.986;2023-03-01T08:27:45;21.77;;;11.50;;
12369;SDS011;6249;52.128;9.986;2023-03-01T08:31:19;21.60;;;10.87;;
12369;SDS011;6249;52.128;9.986;2023-03-01T08:34:40;19.50;;;10.90;;
12369;SDS011;6249;52.128;9.986;2023-03-01T08:38:01;18.80;;;10.73;;
12369;SDS011;6249;52.128;9.986;2023-03-01T08:41:24;16.00;;;10.30;;
12369;SDS011;6249;52.128;9.986;2023-03-01T08:44:47;19.63;;;10.67;;
12369;SDS011;6249;52.128;9.986;2023-03-01T08:48:13;22.10;;;10.60;;
12369;SDS011;6249;52.128;9.986;2023-03-01T08:51:36;19.90;;;11.13;;
12369;SDS011;6249;52.128;9.986;2023-03-01T08:54:59;18.40;;;10.70;;
12369;SDS011;6249;52.128;9.986;2023-03-01T08:58:21;26.83;;;11.03;;
12369;SDS011;6249;52.128;9.986;2023-03-01T09:01:44;20.33;;;10.50;;
12369;SDS011;6249;52.128;9.986;2023-03-01T09:05:09;22.90;;;11.47;;
12369;SDS011;6249;52.128;9.986;2023-03-01T09:08:30;25.27;;;10.30;;
12369;SDS011;6249;52.128;9.986;2023-03-01T09:11:54;24.03;;;10.27;;
12369;SDS011;6249;52.128;9.986;2023-03-01T09:15:19;19.57;;;11.40;;
12369;SDS011;6249;52.128;9.986;2023-03-01T09:18:42;21.00;;;10.50;;
12369;SDS011;6249;52.128;9.986;2023-03-01T09:22:04;18.23;;;10.77;;
12369;SDS011;6249;52.128;9.986;2023-03-01T09:25:27;18.73;;;10.20;;
12369;SDS011;6249;52.128;9.986;2023-03-01T09:28:49;24.13;;;11.03;;
12369;SDS011;6249;52.128;9.986;2023-03-01T09:32:13;20.07;;;10.93;;
12369;SDS011;6249;52.128;9.986;2023-03-01T09:35:34;20.73;;;10.57;;
12369;SDS011;6249;52.128;9.986;2023-03-01T09:38:54;20.40;;;11.10;;
12369;SDS011;6249;52.128;9.986;2023-03-01T09:42:15;19.60;;;11.13;;
12369;SDS011;6249;52.128;9.986;2023-03-01T09:45:37;18.80;;;10.70;;
12369;SDS011;6249;52.128;9.986;2023-03-01T09:49:05;22.43;;;9.60;;
12369;SDS011;6249;52.128;9.986;2023-03-01T09:56:15;19.30;;;11.23;;
12369;SDS011;6249;52.128;9.986;2023-03-01T09:59:49;22.83;;;10.20;;
12369;SDS011;6249;52.128;9.986;2023-03-01T10:03:34;22.00;;;9.77;;
12369;SDS011;6249;52.128;9.986;2023-03-01T10:07:05;27.20;;;11.10;;
12369;SDS011;6249;52.128;9.986;2023-03-01T10:10:34;16.60;;;9.60;;
12369;SDS011;6249;52.128;9.986;2023-03-01T10:17:53;17.53;;;9.00;;
12369;SDS011;6249;52.128;9.986;2023-03-01T10:21:18;13.77;;;7.50;;
12369;SDS011;6249;52.128;9.986;2023-03-01T10:24:40;15.27;;;8.83;;
12369;SDS011;6249;52.128;9.986;2023-03-01T10:28:15;14.03;;;9.17;;
12369;SDS011;6249;52.128;9.986;2023-03-01T10:31:41;17.70;;;8.43;;
12369;SDS011;6249;52.128;9.986;2023-03-01T10:35:19;19.17;;;9.30;;
12369;SDS011;6249;52.128;9.986;2023-03-01T10:38:55;14.17;;;8.60;;
12369;SDS011;6249;52.128;9.986;2023-03-01T10:42:37;18.07;;;9.63;;
12369;SDS011;6249;52.128;9.986;2023-03-01T10:45:59;19.40;;;9.80;;
12369;SDS011;6249;52.128;9.986;2023-03-01T10:49:21;19.50;;;9.33;;
12369;SDS011;6249;52.128;9.986;2023-03-01T10:52:55;22.60;;;11.53;;
12369;SDS011;6249;52.128;9.986;2023-03-01T10:56:20;26.13;;;10.97;;
12369;SDS011;6249;52.128;9.986;2023-03-01T10:59:45;20.20;;;10.10;;
12369;SDS011;6249;52.128;9.986;2023-03-01T11:03:23;21.33;;;9.57;;
12369;SDS011;6249;52.128;9.986;2023-03-01T11:06:46;22.30;;;9.63;;
12369;SDS011;6249;52.128;9.986;2023-03-01T11:10:40;22.57;;;9.60;;
12369;SDS011;6249;52.128;9.986;2023-03-01T11:14:01;18.27;;;9.00;;
12369;SDS011;6249;52.128;9.986;2023-03-01T11:17:28;12.70;;;7.80;;
12369;SDS011;6249;52.128;9.986;2023-03-01T11:20:51;16.93;;;9.03;;
12369;SDS011;6249;52.128;9.986;2023-03-01T11:24:14;16.50;;;8.63;;
12369;SDS011;6249;52.128;9.986;2023-03-01T11:27:41;12.30;;;7.57;;
12369;SDS011;6249;52.128;9.986;2023-03-01T11:31:07;12.57;;;7.00;;
12369;SDS011;6249;52.128;9.986;2023-03-01T11:41:38;17.10;;;7.50;;
12369;SDS011;6249;52.128;9.986;2023-03-01T11:45:02;20.43;;;7.07;;
12369;SDS011;6249;52.128;9.986;2023-03-01T11:48:44;11.40;;;7.00;;
12369;SDS011;6249;52.128;9.986;2023-03-01T11:56:12;9.60;;;6.57;;
12369;SDS011;6249;52.128;9.986;2023-03-01T12:03:27;10.40;;;6.03;;
12369;SDS011;6249;52.128;9.986;2023-03-01T12:10:29;9.17;;;5.87;;
12369;SDS011;6249;52.128;9.986;2023-03-01T12:28:46;10.27;;;5.63;;
12369;SDS011;6249;52.128;9.986;2023-03-01T12:39:21;9.17;;;6.00;;
12369;SDS011;6249;52.128;9.986;2023-03-01T12:46:46;11.10;;;5.70;;
12369;SDS011;6249;52.128;9.986;2023-03-01T12:50:32;11.83;;;5.93;;
12369;SDS011;6249;52.128;9.986;2023-03-01T12:54:14;10.30;;;5.97;;
12369;SDS011;6249;52.128;9.986;2023-03-01T12:57:42;11.23;;;5.60;;
12369;SDS011;6249;52.128;9.986;2023-03-01T13:01:19;12.77;;;6.20;;
12369;SDS011;6249;52.128;9.986;2023-03-01T13:08:39;8.63;;;5.33;;
12369;SDS011;6249;52.128;9.986;2023-03-01T13:19:56;9.17;;;5.27;;
12369;SDS011;6249;52.128;9.986;2023-03-01T13:33:54;9.70;;;5.27;;
12369;SDS011;6249;52.128;9.986;2023-03-01T13:37:34;12.50;;;6.37;;
12369;SDS011;6249;52.128;9.986;2023-03-01T13:40:57;11.07;;;5.30;;
12369;SDS011;6249;52.128;9.986;2023-03-01T13:47:59;9.30;;;5.10;;
12369;SDS011;6249;52.128;9.986;2023-03-01T13:51:41;8.83;;;4.83;;
12369;SDS011;6249;52.128;9.986;2023-03-01T13:55:03;11.50;;;5.30;;
12369;SDS011;6249;52.128;9.986;2023-03-01T13:58:28;9.60;;;5.00;;
12369;SDS011;6249;52.128;9.986;2023-03-01T14:01:54;9.30;;;4.77;;
12369;SDS011;6249;52.128;9.986;2023-03-01T14:05:19;10.37;;;5.57;;
12369;SDS011;6249;52.128;9.986;2023-03-01T14:08:40;10.90;;;6.00;;
12369;SDS011;6249;52.128;9.986;2023-03-01T14:12:20;8.70;;;4.93;;
12369;SDS011;6249;52.128;9.986;2023-03-01T14:16:02;9.30;;;5.00;;
12369;SDS011;6249;52.128;9.986;2023-03-01T14:19:54;10.93;;;5.20;;
12369;SDS011;6249;52.128;9.986;2023-03-01T14:23:24;8.13;;;4.80;;
12369;SDS011;6249;52.128;9.986;2023-03-01T14:26:47;13.93;;;5.13;;
12369;SDS011;6249;52.128;9.986;2023-03-01T14:30:19;9.37;;;5.07;;
12369;SDS011;6249;52.128;9.986;2023-03-01T14:33:40;9.40;;;5.77;;
12369;SDS011;6249;52.128;9.986;2023-03-01T14:40:57;10.10;;;5.17;;
12369;SDS011;6249;52.128;9.986;2023-03-01T14:44:23;9.20;;;4.53;;
12369;SDS011;6249;52.128;9.986;2023-03-01T14:47:44;10.03;;;5.23;;
12369;SDS011;6249;52.128;9.986;2023-03-01T14:51:09;8.57;;;5.10;;
12369;SDS011;6249;52.128;9.986;2023-03-01T14:54:41;9.83;;;5.70;;
12369;SDS011;6249;52.128;9.986;2023-03-01T14:58:05;8.53;;;4.80;;
12369;SDS011;6249;52.128;9.986;2023-03-01T15:01:34;8.47;;;5.00;;
12369;SDS011;6249;52.128;9.986;2023-03-01T15:04:56;11.03;;;5.23;;
12369;SDS011;6249;52.128;9.986;2023-03-01T15:08:23;10.57;;;5.40;;
12369;SDS011;6249;52.128;9.986;2023-03-01T15:11:45;9.63;;;4.53;;
12369;SDS011;6249;52.128;9.986;2023-03-01T15:15:22;7.70;;;4.50;;
12369;SDS011;6249;52.128;9.986;2023-03-01T15:18:57;10.17;;;4.40;;
12369;SDS011;6249;52.128;9.986;2023-03-01T15:22:26;6.80;;;4.53;;
12369;SDS011;6249;52.128;9.986;2023-03-01T15:25:47;9.57;;;5.33;;
12369;SDS011;6249;52.128;9.986;2023-03-01T15:29:17;7.40;;;5.03;;
12369;SDS011;6249;52.128;9.986;2023-03-01T15:32:41;13.33;;;5.20;;
12369;SDS011;6249;52.128;9.986;2023-03-01T15:36:03;6.97;;;4.03;;
12369;SDS011;6249;52.128;9.986;2023-03-01T15:39:56;7.57;;;4.33;;
12369;SDS011;6249;52.128;9.986;2023-03-01T15:47:08;9.37;;;4.93;;
12369;SDS011;6249;52.128;9.986;2023-03-01T15:50:44;11.23;;;4.90;;
12369;SDS011;6249;52.128;9.986;2023-03-01T15:54:18;7.90;;;4.40;;
12369;SDS011;6249;52.128;9.986;2023-03-01T15:57:41;8.70;;;4.93;;
12369;SDS011;6249;52.128;9.986;2023-03-01T16:01:07;11.57;;;5.37;;
12369;SDS011;6249;52.128;9.986;2023-03-01T16:04:34;11.43;;;4.70;;
12369;SDS011;6249;52.128;9.986;2023-03-01T16:07:57;8.67;;;5.10;;
12369;SDS011;6249;52.128;9.986;2023-03-01T16:11:18;10.63;;;4.43;;
12369;SDS011;6249;52.128;9.986;2023-03-01T16:14:40;9.93;;;4.40;;
12369;SDS011;6249;52.128;9.986;2023-03-01T16:18:00;7.90;;;4.50;;
12369;SDS011;6249;52.128;9.986;2023-03-01T16:21:23;7.93;;;4.27;;
12369;SDS011;6249;52.128;9.986;2023-03-01T16:24:44;6.83;;;4.23;;
12369;SDS011;6249;52.128;9.986;2023-03-01T16:28:05;8.43;;;4.77;;
12369;SDS011;6249;52.128;9.986;2023-03-01T16:31:28;8.60;;;4.40;;
12369;SDS011;6249;52.128;9.986;2023-03-01T16:34:49;9.77;;;4.80;;
12369;SDS011;6249;52.128;9.986;2023-03-01T16:38:12;8.70;;;5.07;;
12369;SDS011;6249;52.128;9.986;2023-03-01T16:41:35;8.87;;;5.20;;
12369;SDS011;6249;52.128;9.986;2023-03-01T16:44:55;10.43;;;5.40;;
12369;SDS011;6249;52.128;9.986;2023-03-01T16:48:16;10.07;;;5.17;;
12369;SDS011;6249;52.128;9.986;2023-03-01T16:51:37;8.40;;;4.67;;
12369;SDS011;6249;52.128;9.986;2023-03-01T16:54:57;12.87;;;6.57;;
12369;SDS011;6249;52.128;9.986;2023-03-01T16:58:21;9.17;;;5.10;;
12369;SDS011;6249;52.128;9.986;2023-03-01T17:01:44;11.30;;;6.10;;
12369;SDS011;6249;52.128;9.986;2023-03-01T17:05:08;15.07;;;5.50;;
12369;SDS011;6249;52.128;9.986;2023-03-01T17:08:31;11.50;;;5.67;;
12369;SDS011;6249;52.128;9.986;2023-03-01T17:11:51;10.33;;;4.20;;
12369;SDS011;6249;52.128;9.986;2023-03-01T17:15:14;15.17;;;5.70;;
12369;SDS011;6249;52.128;9.986;2023-03-01T17:18:35;9.87;;;5.07;;
12369;SDS011;6249;52.128;9.986;2023-03-01T17:21:58;10.60;;;5.17;;
12369;SDS011;6249;52.128;9.986;2023-03-01T17:25:20;9.07;;;4.53;;
12369;SDS011;6249;52.128;9.986;2023-03-01T17:28:40;7.90;;;3.87;;
12369;SDS011;6249;52.128;9.986;2023-03-01T17:32:03;20.40;;;10.10;;
12369;SDS011;6249;52.128;9.986;2023-03-01T17:35:26;19.67;;;11.50;;
12369;SDS011;6249;52.128;9.986;2023-03-01T17:38:49;11.50;;;7.30;;
12369;SDS011;6249;52.128;9.986;2023-03-01T17:42:11;10.87;;;5.63;;
12369;SDS011;6249;52.128;9.986;2023-03-01T17:45:32;12.20;;;6.17;;
12369;SDS011;6249;52.128;9.986;2023-03-01T17:48:57;18.30;;;6.10;;
12369;SDS011;6249;52.128;9.986;2023-03-01T17:52:21;9.30;;;4.87;;
12369;SDS011;6249;52.128;9.986;2023-03-01T17:55:42;10.23;;;4.40;;
12369;SDS011;6249;52.128;9.986;2023-03-01T17:59:04;8.60;;;4.93;;
12369;SDS011;6249;52.128;9.986;2023-03-01T18:02:29;9.20;;;4.50;;
12369;SDS011;6249;52.128;9.986;2023-03-01T18:05:54;11.93;;;5.73;;
12369;SDS011;6249;52.128;9.986;2023-03-01T18:09:17;16.27;;;5.90;;
12369;SDS011;6249;52.128;9.986;2023-03-01T18:12:41;12.30;;;6.73;;
12369;SDS011;6249;52.128;9.986;2023-03-01T18:16:07;15.60;;;9.90;;
12369;SDS011;6249;52.128;9.986;2023-03-01T18:19:29;16.23;;;8.00;;
12369;SDS011;6249;52.128;9.986;2023-03-01T18:22:50;10.97;;;5.47;;
12369;SDS011;6249;52.128;9.986;2023-03-01T18:26:12;9.60;;;5.80;;
12369;SDS011;6249;52.128;9.986;2023-03-01T18:29:41;10.30;;;5.57;;
12369;SDS011;6249;52.128;9.986;2023-03-01T18:33:03;26.47;;;11.70;;
12369;SDS011;6249;52.128;9.986;2023-03-01T18:36:27;26.00;;;13.17;;
12369;SDS011;6249;52.128;9.986;2023-03-01T18:39:52;15.50;;;7.40;;
12369;SDS011;6249;52.128;9.986;2023-03-01T18:43:13;10.87;;;6.13;;
12369;SDS011;6249;52.128;9.986;2023-03-01T18:46:34;11.40;;;5.93;;
12369;SDS011;6249;52.128;9.986;2023-03-01T18:49:58;13.07;;;7.03;;
12369;SDS011;6249;52.128;9.986;2023-03-01T18:53:19;18.27;;;7.13;;
12369;SDS011;6249;52.128;9.986;2023-03-01T18:56:47;12.30;;;5.80;;
12369;SDS011;6249;52.128;9.986;2023-03-01T19:00:10;9.13;;;5.30;;
12369;SDS011;6249;52.128;9.986;2023-03-01T19:03:34;12.60;;;5.33;;
12369;SDS011;6249;52.128;9.986;2023-03-01T19:06:55;9.90;;;5.07;;
12369;SDS011;6249;52.128;9.986;2023-03-01T19:10:15;15.23;;;6.60;;
12369;SDS011;6249;52.128;9.986;2023-03-01T19:13:37;16.77;;;8.10;;
12369;SDS011;6249;52.128;9.986;2023-03-01T19:16:58;17.37;;;7.37;;
12369;SDS011;6249;52.128;9.986;2023-03-01T19:20:19;14.03;;;6.77;;
12369;SDS011;6249;52.128;9.986;2023-03-01T19:23:40;10.17;;;5.60;;
12369;SDS011;6249;52.128;9.986;2023-03-01T19:27:00;12.07;;;6.17;;
12369;SDS011;6249;52.128;9.986;2023-03-01T19:30:21;13.60;;;7.20;;
12369;SDS011;6249;52.128;9.986;2023-03-01T19:33:43;13.03;;;6.43;;
12369;SDS011;6249;52.128;9.986;2023-03-01T19:37:04;19.77;;;8.87;;
12369;SDS011;6249;52.128;9.986;2023-03-01T19:40:24;17.07;;;7.77;;
12369;SDS011;6249;52.128;9.986;2023-03-01T19:43:45;15.87;;;7.70;;
12369;SDS011;6249;52.128;9.986;2023-03-01T19:47:08;28.23;;;13.30;;
12369;SDS011;6249;52.128;9.986;2023-03-01T19:50:29;30.97;;;11.40;;
12369;SDS011;6249;52.128;9.986;2023-03-01T19:53:49;19.97;;;10.00;;
12369;SDS011;6249;52.128;9.986;2023-03-01T19:57:10;17.33;;;7.20;;
12369;SDS011;6249;52.128;9.986;2023-03-01T20:00:33;14.00;;;6.00;;
12369;SDS011;6249;52.128;9.986;2023-03-01T20:03:56;10.73;;;5.60;;
12369;SDS011;6249;52.128;9.986;2023-03-01T20:07:19;12.80;;;6.07;;
12369;SDS011;6249;52.128;9.986;2023-03-01T20:10:39;14.70;;;6.50;;
12369;SDS011;6249;52.128;9.986;2023-03-01T20:14:00;16.37;;;5.40;;
12369;SDS011;6249;52.128;9.986;2023-03-01T20:17:22;14.47;;;6.73;;
12369;SDS011;6249;52.128;9.986;2023-03-01T20:20:46;9.60;;;5.07;;
12369;SDS011;6249;52.128;9.986;2023-03-01T20:24:12;11.23;;;5.60;;
12369;SDS011;6249;52.128;9.986;2023-03-01T20:27:32;14.50;;;5.50;;
12369;SDS011;6249;52.128;9.986;2023-03-01T20:30:53;10.40;;;5.30;;
12369;SDS011;6249;52.128;9.986;2023-03-01T20:34:14;18.10;;;6.43;;
12369;SDS011;6249;52.128;9.986;2023-03-01T20:37:44;15.73;;;8.50;;
12369;SDS011;6249;52.128;9.986;2023-03-01T20:41:06;13.97;;;7.53;;
12369;SDS011;6249;52.128;9.986;2023-03-01T20:44:28;14.77;;;7.87;;
12369;SDS011;6249;52.128;9.986;2023-03-01T20:47:49;27.97;;;17.33;;
12369;SDS011;6249;52.128;9.986;2023-03-01T20:51:11;14.97;;;8.37;;
12369;SDS011;6249;52.128;9.986;2023-03-01T20:54:34;16.07;;;7.83;;
12369;SDS011;6249;52.128;9.986;2023-03-01T20:57:55;14.10;;;7.27;;
12369;SDS011;6249;52.128;9.986;2023-03-01T21:01:17;18.73;;;8.17;;
12369;SDS011;6249;52.128;9.986;2023-03-01T21:04:39;24.53;;;8.17;;
12369;SDS011;6249;52.128;9.986;2023-03-01T21:08:02;10.90;;;5.90;;
12369;SDS011;6249;52.128;9.986;2023-03-01T21:11:28;13.53;;;7.30;;
12369;SDS011;6249;52.128;9.986;2023-03-01T21:14:48;12.67;;;6.27;;
12369;SDS011;6249;52.128;9.986;2023-03-01T21:18:09;14.37;;;6.67;;
12369;SDS011;6249;52.128;9.986;2023-03-01T21:21:32;15.00;;;6.20;;
12369;SDS011;6249;52.128;9.986;2023-03-01T21:24:52;18.13;;;7.57;;
12369;SDS011;6249;52.128;9.986;2023-03-01T21:28:13;18.43;;;8.43;;
12369;SDS011;6249;52.128;9.986;2023-03-01T21:31:39;20.30;;;8.50;;
12369;SDS011;6249;52.128;9.986;2023-03-01T21:35:02;22.53;;;8.70;;
12369;SDS011;6249;52.128;9.986;2023-03-01T21:38:25;19.53;;;8.53;;
12369;SDS011;6249;52.128;9.986;2023-03-01T21:41:48;21.03;;;9.70;;
12369;SDS011;6249;52.128;9.986;2023-03-01T21:45:09;23.70;;;10.60;;
12369;SDS011;6249;52.128;9.986;2023-03-01T21:48:32;18.83;;;9.07;;
12369;SDS011;6249;52.128;9.986;2023-03-01T21:51:55;28.50;;;11.40;;
12369;SDS011;6249;52.128;9.986;2023-03-01T21:55:16;28.70;;;12.40;;
12369;SDS011;6249;52.128;9.986;2023-03-01T21:58:37;31.27;;;12.37;;